sensor_id;sensor_type;location;lat;lon;timestamp;P1;durP1;ratioP1;P2;durP2;ratioP2
65533;SDS011;53640;55.838;37.184;2022-10-29T00:02:08;4.15;;;3.03;;
65533;SDS011;53640;55.838;37.184;2022-10-29T00:04:34;3.88;;;2.97;;
65533;SDS011;53640;55.838;37.184;2022-10-29T00:07:01;3.65;;;2.40;;
65533;SDS011;53640;55.838;37.184;2022-10-29T00:09:27;2.95;;;2.50;;
65533;SDS011;53640;55.838;37.184;2022-10-29T00:11:54;4.00;;;2.90;;
65533;SDS011;53640;55.838;37.184;2022-10-29T00:14:20;3.47;;;2.85;;
65533;SDS011;53640;55.838;37.184;2022-10-29T00:16:47;5.63;;;2.67;;
65533;SDS011;53640;55.838;37.184;2022-10-29T00:19:14;3.05;;;2.67;;
65533;SDS011;53640;55.838;37.184;2022-10-29T00:21:40;3.40;;;2.67;;
65533;SDS011;53640;55.838;37.184;2022-10-29T00:24:08;5.13;;;2.60;;
65533;SDS011;53640;55.838;37.184;2022-10-29T00:26:36;2.40;;;2.20;;
65533;SDS011;53640;55.838;37.184;2022-10-29T00:29:02;3.65;;;2.17;;
65533;SDS011;53640;55.838;37.184;2022-10-29T00:31:28;2.95;;;2.30;;
65533;SDS011;53640;55.838;37.184;2022-10-29T00:33:55;2.05;;;1.85;;
65533;SDS011;53640;55.838;37.184;2022-10-29T00:36:23;2.53;;;2.30;;
65533;SDS011;53640;55.838;37.184;2022-10-29T00:38:51;3.63;;;2.50;;
65533;SDS011;53640;55.838;37.184;2022-10-29T00:41:19;1.60;;;1.50;;
65533;SDS011;53640;55.838;37.184;2022-10-29T00:43:50;2.47;;;2.28;;
65533;SDS011;53640;55.838;37.184;2022-10-29T00:46:37;2.33;;;2.00;;
65533;SDS011;53640;55.838;37.184;2022-10-29T00:49:26;2.95;;;1.98;;
65533;SDS011;53640;55.838;37.184;2022-10-29T00:51:52;1.83;;;1.60;;
65533;SDS011;53640;55.838;37.184;2022-10-29T00:54:19;2.53;;;2.17;;
65533;SDS011;53640;55.838;37.184;2022-10-29T00:56:57;2.85;;;2.45;;
65533;SDS011;53640;55.838;37.184;2022-10-29T00:59:27;3.03;;;2.08;;
65533;SDS011;53640;55.838;37.184;2022-10-29T01:01:54;1.95;;;1.85;;
65533;SDS011;53640;55.838;37.184;2022-10-29T01:04:20;1.95;;;1.85;;
65533;SDS011;53640;55.838;37.184;2022-10-29T01:06:48;2.47;;;2.28;;
65533;SDS011;53640;55.838;37.184;2022-10-29T01:09:41;2.15;;;2.05;;
65533;SDS011;53640;55.838;37.184;2022-10-29T01:14:58;2.47;;;2.28;;
65533;SDS011;53640;55.838;37.184;2022-10-29T01:32:30;1.63;;;1.50;;
65533;SDS011;53640;55.838;37.184;2022-10-29T01:35:20;2.00;;;1.80;;
65533;SDS011;53640;55.838;37.184;2022-10-29T01:43:25;2.13;;;1.92;;
65533;SDS011;53640;55.838;37.184;2022-10-29T01:48:43;2.03;;;1.80;;
65533;SDS011;53640;55.838;37.184;2022-10-29T01:51:18;5.20;;;2.20;;
65533;SDS011;53640;55.838;37.184;2022-10-29T01:54:16;2.30;;;2.10;;
65533;SDS011;53640;55.838;37.184;2022-10-29T01:56:42;2.05;;;1.88;;
65533;SDS011;53640;55.838;37.184;2022-10-29T01:59:10;2.30;;;2.10;;
65533;SDS011;53640;55.838;37.184;2022-10-29T02:01:54;3.85;;;2.20;;
65533;SDS011;53640;55.838;37.184;2022-10-29T02:10:23;2.13;;;1.92;;
65533;SDS011;53640;55.838;37.184;2022-10-29T02:12:56;2.20;;;2.00;;
65533;SDS011;53640;55.838;37.184;2022-10-29T02:15:24;1.85;;;1.75;;
65533;SDS011;53640;55.838;37.184;2022-10-29T02:18:04;3.33;;;1.90;;
65533;SDS011;53640;55.838;37.184;2022-10-29T02:20:32;3.95;;;2.00;;
65533;SDS011;53640;55.838;37.184;2022-10-29T02:23:00;3.10;;;2.22;;
65533;SDS011;53640;55.838;37.184;2022-10-29T02:25:26;2.60;;;1.77;;
65533;SDS011;53640;55.838;37.184;2022-10-29T02:27:58;2.20;;;2.00;;
65533;SDS011;53640;55.838;37.184;2022-10-29T02:30:24;1.90;;;1.80;;
65533;SDS011;53640;55.838;37.184;2022-10-29T02:32:51;1.80;;;1.70;;
65533;SDS011;53640;55.838;37.184;2022-10-29T02:35:17;2.97;;;2.13;;
65533;SDS011;53640;55.838;37.184;2022-10-29T02:37:44;1.85;;;1.75;;
65533;SDS011;53640;55.838;37.184;2022-10-29T02:40:11;2.17;;;1.90;;
65533;SDS011;53640;55.838;37.184;2022-10-29T02:42:39;1.70;;;1.60;;
65533;SDS011;53640;55.838;37.184;2022-10-29T02:45:09;1.70;;;1.60;;
65533;SDS011;53640;55.838;37.184;2022-10-29T02:47:35;1.83;;;1.70;;
65533;SDS011;53640;55.838;37.184;2022-10-29T02:50:03;1.85;;;1.50;;
65533;SDS011;53640;55.838;37.184;2022-10-29T02:52:31;2.67;;;1.98;;
65533;SDS011;53640;55.838;37.184;2022-10-29T02:54:57;1.80;;;1.70;;
65533;SDS011;53640;55.838;37.184;2022-10-29T02:57:23;1.75;;;1.65;;
65533;SDS011;53640;55.838;37.184;2022-10-29T02:59:50;2.03;;;1.80;;
65533;SDS011;53640;55.838;37.184;2022-10-29T03:02:16;1.38;;;1.27;;
65533;SDS011;53640;55.838;37.184;2022-10-29T03:04:42;2.35;;;1.80;;
65533;SDS011;53640;55.838;37.184;2022-10-29T03:07:10;2.03;;;1.88;;
65533;SDS011;53640;55.838;37.184;2022-10-29T03:09:36;2.08;;;1.90;;
65533;SDS011;53640;55.838;37.184;2022-10-29T03:12:03;2.40;;;2.20;;
65533;SDS011;53640;55.838;37.184;2022-10-29T03:14:56;2.42;;;1.60;;
65533;SDS011;53640;55.838;37.184;2022-10-29T03:17:22;1.80;;;1.70;;
65533;SDS011;53640;55.838;37.184;2022-10-29T03:19:48;1.80;;;1.70;;
65533;SDS011;53640;55.838;37.184;2022-10-29T03:22:15;2.80;;;2.60;;
65533;SDS011;53640;55.838;37.184;2022-10-29T03:24:41;2.80;;;2.60;;
65533;SDS011;53640;55.838;37.184;2022-10-29T03:27:07;2.15;;;2.05;;
65533;SDS011;53640;55.838;37.184;2022-10-29T03:29:34;2.35;;;2.10;;
65533;SDS011;53640;55.838;37.184;2022-10-29T03:32:00;2.47;;;2.28;;
65533;SDS011;53640;55.838;37.184;2022-10-29T03:34:28;2.70;;;2.50;;
65533;SDS011;53640;55.838;37.184;2022-10-29T03:37:02;2.60;;;2.30;;
65533;SDS011;53640;55.838;37.184;2022-10-29T03:39:28;7.13;;;3.45;;
65533;SDS011;53640;55.838;37.184;2022-10-29T03:41:57;2.95;;;2.65;;
65533;SDS011;53640;55.838;37.184;2022-10-29T03:44:23;3.38;;;2.70;;
65533;SDS011;53640;55.838;37.184;2022-10-29T03:46:49;3.53;;;3.00;;
65533;SDS011;53640;55.838;37.184;2022-10-29T03:49:16;2.95;;;2.33;;
65533;SDS011;53640;55.838;37.184;2022-10-29T03:51:43;3.10;;;2.78;;
65533;SDS011;53640;55.838;37.184;2022-10-29T03:54:11;3.00;;;2.45;;
65533;SDS011;53640;55.838;37.184;2022-10-29T03:56:37;4.50;;;2.92;;
65533;SDS011;53640;55.838;37.184;2022-10-29T03:59:23;4.85;;;3.10;;
65533;SDS011;53640;55.838;37.184;2022-10-29T04:01:50;2.70;;;2.50;;
65533;SDS011;53640;55.838;37.184;2022-10-29T04:04:16;5.28;;;3.72;;
65533;SDS011;53640;55.838;37.184;2022-10-29T04:06:43;14.63;;;9.88;;
65533;SDS011;53640;55.838;37.184;2022-10-29T04:09:09;22.17;;;14.80;;
65533;SDS011;53640;55.838;37.184;2022-10-29T04:11:35;14.73;;;11.20;;
65533;SDS011;53640;55.838;37.184;2022-10-29T04:14:01;9.68;;;7.45;;
65533;SDS011;53640;55.838;37.184;2022-10-29T04:16:28;7.25;;;4.65;;
65533;SDS011;53640;55.838;37.184;2022-10-29T04:18:57;4.85;;;3.95;;
65533;SDS011;53640;55.838;37.184;2022-10-29T04:21:24;6.40;;;4.40;;
65533;SDS011;53640;55.838;37.184;2022-10-29T04:23:50;4.38;;;3.33;;
65533;SDS011;53640;55.838;37.184;2022-10-29T04:26:17;5.00;;;3.25;;
65533;SDS011;53640;55.838;37.184;2022-10-29T04:28:48;5.95;;;4.13;;
65533;SDS011;53640;55.838;37.184;2022-10-29T04:31:15;3.30;;;3.00;;
65533;SDS011;53640;55.838;37.184;2022-10-29T04:33:43;4.30;;;3.20;;
65533;SDS011;53640;55.838;37.184;2022-10-29T04:36:09;5.78;;;3.50;;
65533;SDS011;53640;55.838;37.184;2022-10-29T04:38:36;3.20;;;2.90;;
65533;SDS011;53640;55.838;37.184;2022-10-29T04:41:03;5.72;;;3.03;;
65533;SDS011;53640;55.838;37.184;2022-10-29T04:43:30;3.90;;;3.22;;
65533;SDS011;53640;55.838;37.184;2022-10-29T04:45:57;5.53;;;3.28;;
65533;SDS011;53640;55.838;37.184;2022-10-29T04:48:26;6.97;;;3.42;;
65533;SDS011;53640;55.838;37.184;2022-10-29T04:50:53;4.40;;;3.10;;
65533;SDS011;53640;55.838;37.184;2022-10-29T04:53:20;4.07;;;2.45;;
65533;SDS011;53640;55.838;37.184;2022-10-29T04:55:47;2.50;;;2.30;;
65533;SDS011;53640;55.838;37.184;2022-10-29T04:58:14;4.47;;;2.80;;
65533;SDS011;53640;55.838;37.184;2022-10-29T05:00:42;3.67;;;2.65;;
65533;SDS011;53640;55.838;37.184;2022-10-29T05:03:10;2.90;;;2.60;;
65533;SDS011;53640;55.838;37.184;2022-10-29T05:05:38;3.60;;;3.00;;
65533;SDS011;53640;55.838;37.184;2022-10-29T05:08:07;2.97;;;2.60;;
65533;SDS011;53640;55.838;37.184;2022-10-29T05:10:36;2.20;;;2.00;;
65533;SDS011;53640;55.838;37.184;2022-10-29T05:13:05;5.38;;;3.00;;
65533;SDS011;53640;55.838;37.184;2022-10-29T05:15:33;5.00;;;3.05;;
65533;SDS011;53640;55.838;37.184;2022-10-29T05:18:00;2.70;;;2.50;;
65533;SDS011;53640;55.838;37.184;2022-10-29T05:20:28;3.65;;;3.13;;
65533;SDS011;53640;55.838;37.184;2022-10-29T05:23:05;3.35;;;2.63;;
65533;SDS011;53640;55.838;37.184;2022-10-29T05:25:35;4.38;;;2.65;;
65533;SDS011;53640;55.838;37.184;2022-10-29T05:28:14;4.57;;;3.42;;
65533;SDS011;53640;55.838;37.184;2022-10-29T05:30:46;2.53;;;2.30;;
65533;SDS011;53640;55.838;37.184;2022-10-29T05:33:15;5.38;;;2.90;;
65533;SDS011;53640;55.838;37.184;2022-10-29T05:35:45;6.35;;;3.13;;
65533;SDS011;53640;55.838;37.184;2022-10-29T05:38:13;3.80;;;2.95;;
65533;SDS011;53640;55.838;37.184;2022-10-29T05:40:40;4.35;;;2.65;;
65533;SDS011;53640;55.838;37.184;2022-10-29T05:43:13;2.90;;;2.60;;
65533;SDS011;53640;55.838;37.184;2022-10-29T05:45:46;2.97;;;2.60;;
65533;SDS011;53640;55.838;37.184;2022-10-29T05:48:17;3.17;;;2.83;;
65533;SDS011;53640;55.838;37.184;2022-10-29T05:50:58;4.22;;;3.03;;
65533;SDS011;53640;55.838;37.184;2022-10-29T05:53:35;3.83;;;3.03;;
65533;SDS011;53640;55.838;37.184;2022-10-29T05:56:28;4.95;;;3.95;;
65533;SDS011;53640;55.838;37.184;2022-10-29T05:58:59;4.20;;;3.63;;
65533;SDS011;53640;55.838;37.184;2022-10-29T06:01:34;4.45;;;3.65;;
65533;SDS011;53640;55.838;37.184;2022-10-29T06:04:01;6.00;;;3.30;;
65533;SDS011;53640;55.838;37.184;2022-10-29T06:06:35;5.97;;;3.92;;
65533;SDS011;53640;55.838;37.184;2022-10-29T06:09:03;5.55;;;3.33;;
65533;SDS011;53640;55.838;37.184;2022-10-29T06:11:30;3.38;;;3.05;;
65533;SDS011;53640;55.838;37.184;2022-10-29T06:24:27;3.00;;;2.70;;
65533;SDS011;53640;55.838;37.184;2022-10-29T06:27:43;3.30;;;2.60;;
65533;SDS011;53640;55.838;37.184;2022-10-29T06:30:10;3.55;;;2.85;;
65533;SDS011;53640;55.838;37.184;2022-10-29T06:35:35;4.95;;;2.80;;
65533;SDS011;53640;55.838;37.184;2022-10-29T06:40:56;5.13;;;3.25;;
65533;SDS011;53640;55.838;37.184;2022-10-29T06:43:24;4.63;;;2.90;;
65533;SDS011;53640;55.838;37.184;2022-10-29T06:45:50;3.72;;;2.70;;
65533;SDS011;53640;55.838;37.184;2022-10-29T06:48:18;3.20;;;2.90;;
65533;SDS011;53640;55.838;37.184;2022-10-29T06:50:45;3.53;;;2.65;;
65533;SDS011;53640;55.838;37.184;2022-10-29T06:53:12;3.50;;;2.85;;
65533;SDS011;53640;55.838;37.184;2022-10-29T06:55:40;3.20;;;2.90;;
65533;SDS011;53640;55.838;37.184;2022-10-29T06:58:10;5.75;;;3.25;;
65533;SDS011;53640;55.838;37.184;2022-10-29T07:00:41;3.40;;;2.88;;
65533;SDS011;53640;55.838;37.184;2022-10-29T07:03:11;3.38;;;2.63;;
65533;SDS011;53640;55.838;37.184;2022-10-29T07:05:44;2.60;;;2.38;;
65533;SDS011;53640;55.838;37.184;2022-10-29T07:08:14;3.20;;;2.90;;
65533;SDS011;53640;55.838;37.184;2022-10-29T07:10:48;4.78;;;3.00;;
65533;SDS011;53640;55.838;37.184;2022-10-29T07:13:16;4.13;;;3.15;;
65533;SDS011;53640;55.838;37.184;2022-10-29T07:15:47;5.60;;;2.88;;
65533;SDS011;53640;55.838;37.184;2022-10-29T07:18:14;3.45;;;2.78;;
65533;SDS011;53640;55.838;37.184;2022-10-29T07:20:41;3.58;;;2.97;;
65533;SDS011;53640;55.838;37.184;2022-10-29T07:23:09;8.18;;;3.80;;
65533;SDS011;53640;55.838;37.184;2022-10-29T07:25:43;4.38;;;2.90;;
65533;SDS011;53640;55.838;37.184;2022-10-29T07:28:15;6.90;;;3.20;;
65533;SDS011;53640;55.838;37.184;2022-10-29T07:30:45;5.50;;;3.35;;
65533;SDS011;53640;55.838;37.184;2022-10-29T07:33:14;4.72;;;3.05;;
65533;SDS011;53640;55.838;37.184;2022-10-29T07:35:41;4.22;;;3.22;;
65533;SDS011;53640;55.838;37.184;2022-10-29T07:38:08;5.60;;;2.90;;
65533;SDS011;53640;55.838;37.184;2022-10-29T07:40:39;6.78;;;3.42;;
65533;SDS011;53640;55.838;37.184;2022-10-29T07:43:11;4.30;;;3.30;;
65533;SDS011;53640;55.838;37.184;2022-10-29T07:45:37;4.18;;;2.90;;
65533;SDS011;53640;55.838;37.184;2022-10-29T07:48:05;3.90;;;2.72;;
65533;SDS011;53640;55.838;37.184;2022-10-29T07:50:37;6.35;;;3.15;;
65533;SDS011;53640;55.838;37.184;2022-10-29T07:53:10;5.43;;;3.17;;
65533;SDS011;53640;55.838;37.184;2022-10-29T07:55:39;6.47;;;3.28;;
65533;SDS011;53640;55.838;37.184;2022-10-29T07:59:16;3.65;;;3.22;;
65533;SDS011;53640;55.838;37.184;2022-10-29T08:01:46;6.05;;;3.85;;
65533;SDS011;53640;55.838;37.184;2022-10-29T08:04:13;5.80;;;3.55;;
65533;SDS011;53640;55.838;37.184;2022-10-29T08:06:40;5.35;;;3.70;;
65533;SDS011;53640;55.838;37.184;2022-10-29T08:12:08;4.63;;;3.53;;
65533;SDS011;53640;55.838;37.184;2022-10-29T08:14:40;6.05;;;3.33;;
65533;SDS011;53640;55.838;37.184;2022-10-29T08:17:06;4.95;;;3.58;;
65533;SDS011;53640;55.838;37.184;2022-10-29T08:19:33;5.60;;;3.45;;
65533;SDS011;53640;55.838;37.184;2022-10-29T08:22:01;5.40;;;3.42;;
65533;SDS011;53640;55.838;37.184;2022-10-29T08:24:27;4.78;;;2.78;;
65533;SDS011;53640;55.838;37.184;2022-10-29T08:29:34;5.70;;;3.65;;
65533;SDS011;53640;55.838;37.184;2022-10-29T08:32:05;6.10;;;4.00;;
65533;SDS011;53640;55.838;37.184;2022-10-29T08:34:32;4.18;;;2.92;;
65533;SDS011;53640;55.838;37.184;2022-10-29T08:37:03;8.07;;;4.40;;
65533;SDS011;53640;55.838;37.184;2022-10-29T08:39:37;3.92;;;3.33;;
65533;SDS011;53640;55.838;37.184;2022-10-29T08:44:58;7.65;;;3.65;;
65533;SDS011;53640;55.838;37.184;2022-10-29T08:51:16;4.10;;;3.17;;
65533;SDS011;53640;55.838;37.184;2022-10-29T08:57:00;4.47;;;3.40;;
65533;SDS011;53640;55.838;37.184;2022-10-29T09:00:02;3.90;;;3.00;;
65533;SDS011;53640;55.838;37.184;2022-10-29T09:02:32;7.95;;;4.75;;
65533;SDS011;53640;55.838;37.184;2022-10-29T09:05:01;5.07;;;3.50;;
65533;SDS011;53640;55.838;37.184;2022-10-29T09:16:17;6.55;;;4.50;;
65533;SDS011;53640;55.838;37.184;2022-10-29T09:27:52;6.70;;;4.87;;
65533;SDS011;53640;55.838;37.184;2022-10-29T09:30:42;6.32;;;4.45;;
65533;SDS011;53640;55.838;37.184;2022-10-29T09:35:59;8.18;;;5.10;;
65533;SDS011;53640;55.838;37.184;2022-10-29T09:38:31;11.38;;;6.30;;
65533;SDS011;53640;55.838;37.184;2022-10-29T09:41:03;9.23;;;5.15;;
65533;SDS011;53640;55.838;37.184;2022-10-29T09:52:55;11.85;;;6.20;;
65533;SDS011;53640;55.838;37.184;2022-10-29T09:55:25;8.90;;;5.55;;
65533;SDS011;53640;55.838;37.184;2022-10-29T10:00:25;10.65;;;6.53;;
65533;SDS011;53640;55.838;37.184;2022-10-29T10:08:56;11.23;;;7.50;;
65533;SDS011;53640;55.838;37.184;2022-10-29T10:11:29;11.23;;;6.50;;
65533;SDS011;53640;55.838;37.184;2022-10-29T10:14:13;8.77;;;5.95;;
65533;SDS011;53640;55.838;37.184;2022-10-29T10:16:44;8.75;;;5.53;;
65533;SDS011;53640;55.838;37.184;2022-10-29T10:19:27;10.27;;;6.13;;
65533;SDS011;53640;55.838;37.184;2022-10-29T10:22:03;14.40;;;6.90;;
65533;SDS011;53640;55.838;37.184;2022-10-29T10:24:32;10.05;;;6.03;;
65533;SDS011;53640;55.838;37.184;2022-10-29T10:32:40;11.45;;;6.70;;
65533;SDS011;53640;55.838;37.184;2022-10-29T10:35:38;13.63;;;7.20;;
65533;SDS011;53640;55.838;37.184;2022-10-29T10:38:26;10.90;;;6.07;;
65533;SDS011;53640;55.838;37.184;2022-10-29T10:41:29;10.85;;;6.20;;
65533;SDS011;53640;55.838;37.184;2022-10-29T10:44:16;11.13;;;6.50;;
65533;SDS011;53640;55.838;37.184;2022-10-29T10:47:10;10.48;;;6.85;;
65533;SDS011;53640;55.838;37.184;2022-10-29T10:54:02;10.70;;;6.53;;
65533;SDS011;53640;55.838;37.184;2022-10-29T10:57:02;11.18;;;7.38;;
65533;SDS011;53640;55.838;37.184;2022-10-29T11:00:16;13.20;;;7.20;;
65533;SDS011;53640;55.838;37.184;2022-10-29T11:06:13;9.82;;;5.82;;
65533;SDS011;53640;55.838;37.184;2022-10-29T11:08:35;9.68;;;6.10;;
65533;SDS011;53640;55.838;37.184;2022-10-29T11:26:02;16.45;;;8.57;;
65533;SDS011;53640;55.838;37.184;2022-10-29T11:44:27;10.20;;;6.28;;
65533;SDS011;53640;55.838;37.184;2022-10-29T12:04:34;12.55;;;7.05;;
65533;SDS011;53640;55.838;37.184;2022-10-29T12:25:17;14.23;;;7.95;;
65533;SDS011;53640;55.838;37.184;2022-10-29T12:52:47;12.50;;;6.05;;
65533;SDS011;53640;55.838;37.184;2022-10-29T12:55:27;12.95;;;6.75;;
65533;SDS011;53640;55.838;37.184;2022-10-29T12:57:57;13.23;;;6.85;;
65533;SDS011;53640;55.838;37.184;2022-10-29T13:15:41;13.73;;;6.93;;
65533;SDS011;53640;55.838;37.184;2022-10-29T13:18:30;16.33;;;6.85;;
65533;SDS011;53640;55.838;37.184;2022-10-29T13:21:12;25.52;;;7.85;;
65533;SDS011;53640;55.838;37.184;2022-10-29T13:23:39;18.80;;;7.78;;
65533;SDS011;53640;55.838;37.184;2022-10-29T13:26:09;15.38;;;6.40;;
65533;SDS011;53640;55.838;37.184;2022-10-29T13:28:44;15.43;;;6.32;;
65533;SDS011;53640;55.838;37.184;2022-10-29T13:36:43;15.20;;;7.38;;
65533;SDS011;53640;55.838;37.184;2022-10-29T13:47:31;11.32;;;5.82;;
65533;SDS011;53640;55.838;37.184;2022-10-29T14:04:00;7.75;;;4.93;;
65533;SDS011;53640;55.838;37.184;2022-10-29T14:11:37;10.32;;;5.00;;
65533;SDS011;53640;55.838;37.184;2022-10-29T14:17:57;7.32;;;4.68;;
65533;SDS011;53640;55.838;37.184;2022-10-29T14:20:41;7.60;;;5.00;;
65533;SDS011;53640;55.838;37.184;2022-10-29T14:23:18;7.47;;;5.07;;
65533;SDS011;53640;55.838;37.184;2022-10-29T14:25:44;6.80;;;4.53;;
65533;SDS011;53640;55.838;37.184;2022-10-29T14:30:45;6.57;;;4.40;;
65533;SDS011;53640;55.838;37.184;2022-10-29T14:41:08;7.57;;;4.55;;
65533;SDS011;53640;55.838;37.184;2022-10-29T14:43:35;8.93;;;5.10;;
65533;SDS011;53640;55.838;37.184;2022-10-29T14:51:39;7.68;;;4.75;;
65533;SDS011;53640;55.838;37.184;2022-10-29T14:54:14;4.93;;;4.43;;
65533;SDS011;53640;55.838;37.184;2022-10-29T14:56:46;5.32;;;3.88;;
65533;SDS011;53640;55.838;37.184;2022-10-29T14:59:17;7.25;;;4.13;;
65533;SDS011;53640;55.838;37.184;2022-10-29T15:01:48;6.50;;;4.60;;
65533;SDS011;53640;55.838;37.184;2022-10-29T15:04:17;8.35;;;4.90;;
65533;SDS011;53640;55.838;37.184;2022-10-29T15:06:49;7.53;;;4.75;;
65533;SDS011;53640;55.838;37.184;2022-10-29T15:09:16;7.28;;;4.65;;
65533;SDS011;53640;55.838;37.184;2022-10-29T15:11:59;5.95;;;4.40;;
65533;SDS011;53640;55.838;37.184;2022-10-29T15:17:12;4.40;;;3.80;;
65533;SDS011;53640;55.838;37.184;2022-10-29T15:19:57;6.50;;;3.88;;
65533;SDS011;53640;55.838;37.184;2022-10-29T15:22:30;6.45;;;3.92;;
65533;SDS011;53640;55.838;37.184;2022-10-29T15:25:03;7.43;;;4.50;;
65533;SDS011;53640;55.838;37.184;2022-10-29T15:27:35;4.95;;;3.58;;
65533;SDS011;53640;55.838;37.184;2022-10-29T15:30:05;4.18;;;3.30;;
65533;SDS011;53640;55.838;37.184;2022-10-29T15:32:35;5.03;;;3.78;;
65533;SDS011;53640;55.838;37.184;2022-10-29T15:35:01;6.88;;;4.50;;
65533;SDS011;53640;55.838;37.184;2022-10-29T15:37:39;7.43;;;3.88;;
65533;SDS011;53640;55.838;37.184;2022-10-29T15:40:14;3.90;;;3.22;;
65533;SDS011;53640;55.838;37.184;2022-10-29T15:42:43;5.88;;;3.80;;
65533;SDS011;53640;55.838;37.184;2022-10-29T15:45:15;7.13;;;3.90;;
65533;SDS011;53640;55.838;37.184;2022-10-29T15:47:45;5.50;;;3.60;;
65533;SDS011;53640;55.838;37.184;2022-10-29T15:50:20;3.00;;;2.70;;
65533;SDS011;53640;55.838;37.184;2022-10-29T15:55:27;4.43;;;3.50;;
65533;SDS011;53640;55.838;37.184;2022-10-29T15:58:00;4.10;;;3.35;;
65533;SDS011;53640;55.838;37.184;2022-10-29T16:00:31;6.72;;;4.40;;
65533;SDS011;53640;55.838;37.184;2022-10-29T16:05:58;5.57;;;3.08;;
65533;SDS011;53640;55.838;37.184;2022-10-29T16:08:27;4.40;;;3.30;;
65533;SDS011;53640;55.838;37.184;2022-10-29T16:10:57;4.25;;;3.20;;
65533;SDS011;53640;55.838;37.184;2022-10-29T16:13:25;5.10;;;3.63;;
65533;SDS011;53640;55.838;37.184;2022-10-29T16:15:53;3.60;;;3.30;;
65533;SDS011;53640;55.838;37.184;2022-10-29T16:18:20;6.38;;;4.07;;
65533;SDS011;53640;55.838;37.184;2022-10-29T16:20:47;6.95;;;3.72;;
65533;SDS011;53640;55.838;37.184;2022-10-29T16:23:14;4.57;;;3.80;;
65533;SDS011;53640;55.838;37.184;2022-10-29T16:25:41;6.03;;;3.72;;
65533;SDS011;53640;55.838;37.184;2022-10-29T16:28:07;4.35;;;3.95;;
65533;SDS011;53640;55.838;37.184;2022-10-29T16:30:34;4.97;;;3.72;;
65533;SDS011;53640;55.838;37.184;2022-10-29T16:33:02;3.42;;;2.80;;
65533;SDS011;53640;55.838;37.184;2022-10-29T16:35:29;4.43;;;3.25;;
65533;SDS011;53640;55.838;37.184;2022-10-29T16:37:56;5.55;;;3.28;;
65533;SDS011;53640;55.838;37.184;2022-10-29T16:40:23;3.65;;;3.10;;
65533;SDS011;53640;55.838;37.184;2022-10-29T16:42:52;3.20;;;2.90;;
65533;SDS011;53640;55.838;37.184;2022-10-29T16:45:20;5.45;;;3.90;;
65533;SDS011;53640;55.838;37.184;2022-10-29T16:47:49;4.28;;;3.22;;
65533;SDS011;53640;55.838;37.184;2022-10-29T16:50:19;6.15;;;4.18;;
65533;SDS011;53640;55.838;37.184;2022-10-29T16:53:02;5.38;;;3.15;;
65533;SDS011;53640;55.838;37.184;2022-10-29T16:55:33;4.35;;;3.08;;
65533;SDS011;53640;55.838;37.184;2022-10-29T16:58:02;5.40;;;4.38;;
65533;SDS011;53640;55.838;37.184;2022-10-29T17:00:29;5.93;;;4.25;;
65533;SDS011;53640;55.838;37.184;2022-10-29T17:03:07;5.80;;;3.55;;
65533;SDS011;53640;55.838;37.184;2022-10-29T17:05:45;5.07;;;3.47;;
65533;SDS011;53640;55.838;37.184;2022-10-29T17:08:12;4.82;;;3.00;;
65533;SDS011;53640;55.838;37.184;2022-10-29T17:10:40;6.68;;;4.15;;
65533;SDS011;53640;55.838;37.184;2022-10-29T17:13:07;5.22;;;3.90;;
65533;SDS011;53640;55.838;37.184;2022-10-29T17:15:39;4.47;;;3.97;;
65533;SDS011;53640;55.838;37.184;2022-10-29T17:18:05;7.43;;;3.75;;
65533;SDS011;53640;55.838;37.184;2022-10-29T17:20:35;8.93;;;4.03;;
65533;SDS011;53640;55.838;37.184;2022-10-29T17:23:06;6.68;;;4.45;;
65533;SDS011;53640;55.838;37.184;2022-10-29T17:25:59;6.10;;;4.05;;
65533;SDS011;53640;55.838;37.184;2022-10-29T17:28:45;5.95;;;3.95;;
65533;SDS011;53640;55.838;37.184;2022-10-29T17:31:16;6.22;;;3.97;;
65533;SDS011;53640;55.838;37.184;2022-10-29T17:33:42;4.13;;;3.40;;
65533;SDS011;53640;55.838;37.184;2022-10-29T17:36:12;10.15;;;4.90;;
65533;SDS011;53640;55.838;37.184;2022-10-29T17:38:40;5.60;;;3.83;;
65533;SDS011;53640;55.838;37.184;2022-10-29T17:41:07;6.53;;;4.20;;
65533;SDS011;53640;55.838;37.184;2022-10-29T17:43:34;7.50;;;4.40;;
65533;SDS011;53640;55.838;37.184;2022-10-29T17:46:00;6.30;;;4.32;;
65533;SDS011;53640;55.838;37.184;2022-10-29T17:48:28;7.65;;;4.28;;
65533;SDS011;53640;55.838;37.184;2022-10-29T17:50:57;6.07;;;3.83;;
65533;SDS011;53640;55.838;37.184;2022-10-29T17:53:25;8.25;;;5.13;;
65533;SDS011;53640;55.838;37.184;2022-10-29T17:55:57;6.32;;;4.55;;
65533;SDS011;53640;55.838;37.184;2022-10-29T17:58:25;11.30;;;4.13;;
65533;SDS011;53640;55.838;37.184;2022-10-29T18:00:53;6.15;;;4.43;;
65533;SDS011;53640;55.838;37.184;2022-10-29T18:03:23;7.68;;;4.63;;
65533;SDS011;53640;55.838;37.184;2022-10-29T18:05:50;9.40;;;5.03;;
65533;SDS011;53640;55.838;37.184;2022-10-29T18:08:25;7.35;;;4.57;;
65533;SDS011;53640;55.838;37.184;2022-10-29T18:11:02;7.40;;;4.20;;
65533;SDS011;53640;55.838;37.184;2022-10-29T18:13:31;6.10;;;4.53;;
65533;SDS011;53640;55.838;37.184;2022-10-29T18:16:19;4.57;;;3.75;;
65533;SDS011;53640;55.838;37.184;2022-10-29T18:18:54;8.07;;;4.63;;
65533;SDS011;53640;55.838;37.184;2022-10-29T18:21:23;10.23;;;5.20;;
65533;SDS011;53640;55.838;37.184;2022-10-29T18:23:50;8.82;;;5.40;;
65533;SDS011;53640;55.838;37.184;2022-10-29T18:26:27;13.10;;;5.25;;
65533;SDS011;53640;55.838;37.184;2022-10-29T18:28:59;7.78;;;4.40;;
65533;SDS011;53640;55.838;37.184;2022-10-29T18:31:28;6.93;;;4.30;;
65533;SDS011;53640;55.838;37.184;2022-10-29T18:33:56;6.95;;;4.65;;
65533;SDS011;53640;55.838;37.184;2022-10-29T18:36:28;5.43;;;3.75;;
65533;SDS011;53640;55.838;37.184;2022-10-29T18:38:55;5.03;;;3.75;;
65533;SDS011;53640;55.838;37.184;2022-10-29T18:41:27;7.55;;;4.65;;
65533;SDS011;53640;55.838;37.184;2022-10-29T18:43:53;5.03;;;3.78;;
65533;SDS011;53640;55.838;37.184;2022-10-29T18:46:22;8.30;;;5.47;;
65533;SDS011;53640;55.838;37.184;2022-10-29T18:48:49;7.93;;;3.95;;
65533;SDS011;53640;55.838;37.184;2022-10-29T18:51:30;27.58;;;20.58;;
65533;SDS011;53640;55.838;37.184;2022-10-29T18:54:00;9.50;;;6.45;;
65533;SDS011;53640;55.838;37.184;2022-10-29T18:56:27;6.15;;;4.40;;
65533;SDS011;53640;55.838;37.184;2022-10-29T18:58:54;8.68;;;5.57;;
65533;SDS011;53640;55.838;37.184;2022-10-29T19:01:29;5.43;;;4.32;;
65533;SDS011;53640;55.838;37.184;2022-10-29T19:04:00;10.07;;;5.90;;
65533;SDS011;53640;55.838;37.184;2022-10-29T19:06:58;7.40;;;4.15;;
65533;SDS011;53640;55.838;37.184;2022-10-29T19:09:31;6.70;;;4.32;;
65533;SDS011;53640;55.838;37.184;2022-10-29T19:11:57;7.68;;;4.93;;
65533;SDS011;53640;55.838;37.184;2022-10-29T19:14:34;7.10;;;4.63;;
65533;SDS011;53640;55.838;37.184;2022-10-29T19:17:12;5.90;;;4.40;;
65533;SDS011;53640;55.838;37.184;2022-10-29T19:19:40;5.50;;;4.15;;
65533;SDS011;53640;55.838;37.184;2022-10-29T19:22:06;5.28;;;3.47;;
65533;SDS011;53640;55.838;37.184;2022-10-29T19:24:35;5.72;;;3.63;;
65533;SDS011;53640;55.838;37.184;2022-10-29T19:27:01;8.85;;;4.32;;
65533;SDS011;53640;55.838;37.184;2022-10-29T19:29:30;8.55;;;4.82;;
65533;SDS011;53640;55.838;37.184;2022-10-29T19:32:00;3.95;;;3.50;;
65533;SDS011;53640;55.838;37.184;2022-10-29T19:34:26;5.28;;;3.65;;
65533;SDS011;53640;55.838;37.184;2022-10-29T19:36:53;5.82;;;3.83;;
65533;SDS011;53640;55.838;37.184;2022-10-29T19:39:20;6.32;;;3.67;;
65533;SDS011;53640;55.838;37.184;2022-10-29T19:41:47;4.13;;;3.72;;